This is the latest recevied weather packets stored in our database for station/object K7AEL. If no packets are shown the sender has not sent any weather packets the latest 10 day(s).
| Time | Temp. | Humidity | Pressure | Rain* | Wind** | Luminosity | Snow |
|---|---|---|---|---|---|---|---|
| 1777942850 | 18.89° C | 51% | 1014.7 hPa | 0 mm | - | 12 W/m² | - |
| 1777942546 | 18.89° C | 51% | 1014.8 hPa | 0 mm | - | 12 W/m² | - |
| 1777942244 | 18.89° C | 51% | 1014.8 hPa | 0 mm | - | 16 W/m² | - |
| 1777941935 | 20° C | 50% | 1015 hPa | 0 mm | - | 25 W/m² | - |
| 1777941632 | 20.56° C | 42% | 1015.2 hPa | 0 mm | - | 28 W/m² | - |
| 1777941329 | 20.56° C | 41% | 1014.9 hPa | 0 mm | - | 25 W/m² | - |
| 1777941026 | 20.56° C | 42% | 1014.9 hPa | 0 mm | - | 28 W/m² | - |
| 1777940721 | 21.11° C | 41% | 1014.9 hPa | 0 mm | - | 30 W/m² | - |
| 1777940421 | 21.11° C | 39% | 1014.8 hPa | 0 mm | - | 53 W/m² | - |
| 1777940117 | 21.67° C | 39% | 1014.7 hPa | 0 mm | - | 61 W/m² | - |
| 1777939814 | 21.67° C | 37% | 1014.5 hPa | 0 mm | - | 54 W/m² | - |
| 1777939512 | 21.67° C | 38% | 1014.4 hPa | 0 mm | - | 53 W/m² | - |
| 1777939209 | 22.22° C | 38% | 1014.4 hPa | 0 mm | - | 43 W/m² | - |
| 1777938906 | 21.67° C | 41% | 1014.2 hPa | 0 mm | - | 47 W/m² | - |
| 1777938602 | 21.67° C | 42% | 1014.1 hPa | 0 mm | - | 52 W/m² | - |
| 1777938294 | 21.67° C | 42% | 1013.8 hPa | 0 mm | - | 53 W/m² | - |
| 1777937990 | 21.67° C | 41% | 1013.9 hPa | 0 mm | - | 75 W/m² | - |
| 1777937686 | 21.67° C | 40% | 1013.8 hPa | 0 mm | - | 69 W/m² | - |
| 1777937383 | 22.22° C | 41% | 1014.2 hPa | 0 mm | - | 61 W/m² | - |
| 1777937080 | 22.22° C | 41% | 1014.2 hPa | 0 mm | - | 55 W/m² | - |
| 1777936778 | 22.22° C | 42% | 1014.5 hPa | 0 mm | - | 63 W/m² | - |
| 1777936474 | 22.78° C | 40% | 1014.4 hPa | 0 mm | - | 66 W/m² | - |
| 1777936170 | 23.33° C | 36% | 1014.8 hPa | 0 mm | - | 70 W/m² | - |
| 1777935867 | 23.89° C | 37% | 1014.9 hPa | 0 mm | - | 78 W/m² | - |
| 1777935566 | 24.44° C | 34% | 1015 hPa | 0 mm | - | 86 W/m² | - |
* Rain latest hour (hover to see other rain measurements)
** Current wind speed in m/s (hover to see current wind gust speed)